Portada
METAR-TAF:

METAR-TAF

Aeroports :

Kassel, Alemanya

latitud: 51-24N, longitud: 009-23E, altitud: 277 m

Observació

L'informe es va fer fa 1 hora i 50 minuts, a les 19:50 UTC
Vent 12 kt del Sud-Oest
Temperatura 4°C
Humitat 81%
Pressió 1019 hPa
Visibilitat 10 km o més
Núvols disperses a una alçada de 3100 ft

METAR: EDVK 181950Z 22012KT 9999 SCT031 04/01 Q1019

Hora: 22:40 (21:40 UTC)

Pronòstic

L'informe es va fer fa 1 hora i 40 minuts, a les 20:00 UTC
Pronòstic vàlid del 18 a les 21 UTC al 19 a les 03 UTC
Vent 12 kt del Sud-Oest
Visibilitat 10 km o més
Núvols disperses a una alçada de 3000 ft
Temporalment
l' 19 a les 00 UTC al 19 a les 03 UTC
Vent 15 kt del Oest amb ràfegues de 25 kt
Cel ennuvolat a una alçada de 2000 ft, Cumulonimbus.
xàfecs de pluja

TAF: EDVK 182000Z 1821/1903 22012KT 9999 SCT030 TEMPO 1900/1903 26015G25KT SHRA BKN020CB

Observacions i pronòstics meteorològics de més de 4000 aeroports (METAR i TAF).

Les estacions disponibles són els punts grocs i vermells al mapa.

Posi el ratolí al punt desitjat per veure el nom de l'estació.

Feu clic per veure les observacions i els pronòstics meteorològics.

Per canviar el mapa: feu clic els botons verds amb una creu de color negre per apropar; al botó verd amb un guió per allunyar la imatge; o en les fletxes verdes per a mapes adjacents.


METAR-TAF: